Time;durP1;ratioP1;P1;durP2;ratioP2;P2;SDS_P1;SDS_P2;PMS_P1;PMS_P2;Temp;Humidity;BMP_temperature;BMP_pressure;BME280_temperature;BME280_humidity;BME280_pressure;Samples;Min_cycle;Max_cycle;Signal;HPM_P1;HPM_P2
2022/06/15 00:00:11;;;;;;;5.60;3.63;;;14.00;99.90;;;;;;5064032;28;20376;-63
2022/06/15 00:02:37;;;;;;;7.13;3.83;;;13.80;99.90;;;;;;5053796;28;20041;-63
2022/06/15 00:05:05;;;;;;;7.63;3.58;;;13.80;99.90;;;;;;5051106;28;20053;-63
2022/06/15 00:07:32;;;;;;;7.47;3.65;;;13.70;99.90;;;;;;5059121;28;20162;-63
2022/06/15 00:09:58;;;;;;;8.85;4.05;;;13.70;99.90;;;;;;5070555;28;20048;-63
2022/06/15 00:12:25;;;;;;;10.98;3.92;;;13.60;99.90;;;;;;5070904;28;20037;-63
2022/06/15 00:14:52;;;;;;;10.15;4.10;;;13.60;99.90;;;;;;5071017;28;20060;-63
2022/06/15 00:17:18;;;;;;;8.13;4.25;;;13.60;99.90;;;;;;5063680;28;20040;-63
2022/06/15 00:19:45;;;;;;;7.55;3.65;;;13.70;99.90;;;;;;5069580;28;20052;-62
2022/06/15 00:22:12;;;;;;;10.77;3.65;;;13.70;99.90;;;;;;5068036;28;20036;-63
2022/06/15 00:24:39;;;;;;;7.68;4.20;;;13.70;99.90;;;;;;5070140;28;20509;-63
2022/06/15 00:27:05;;;;;;;7.60;3.83;;;13.70;99.90;;;;;;5069960;28;20040;-63
2022/06/15 00:29:37;;;;;;;5.85;4.20;;;13.60;99.90;;;;;;5054878;28;20075;-63
2022/06/15 00:32:05;;;;;;;8.18;4.65;;;13.50;99.90;;;;;;5054271;28;20041;-63
2022/06/15 00:34:32;;;;;;;5.63;3.92;;;13.30;99.90;;;;;;5071007;28;20492;-63
2022/06/15 00:37:01;;;;;;;6.38;4.35;;;13.30;99.90;;;;;;5054773;28;20044;-62
2022/06/15 00:39:28;;;;;;;6.03;3.92;;;13.30;99.90;;;;;;5053580;28;20076;-62
2022/06/15 00:41:55;;;;;;;8.15;4.32;;;13.30;99.90;;;;;;5065664;28;20047;-63
2022/06/15 00:44:22;;;;;;;5.82;3.95;;;13.30;99.90;;;;;;5059576;28;20115;-62
2022/06/15 00:47:00;;;;;;;8.48;3.88;;;13.20;99.90;;;;;;5054512;28;20045;-63
2022/06/15 00:49:40;;;;;;;6.97;3.92;;;13.20;99.90;;;;;;5054772;28;20120;-63
2022/06/15 00:52:28;;;;;;;9.30;4.18;;;13.20;99.90;;;;;;5056164;28;20493;-62
2022/06/15 00:54:55;;;;;;;9.80;4.45;;;13.20;99.90;;;;;;5074876;28;20048;-63
2022/06/15 00:57:22;;;;;;;5.65;3.75;;;13.20;99.90;;;;;;5074114;28;20041;-63
2022/06/15 00:59:55;;;;;;;;;;;13.10;99.90;;;;;;5073665;28;20033;-63
2022/06/15 01:02:22;;;;;;;6.30;3.75;;;13.10;99.90;;;;;;5056444;28;19920;-63
2022/06/15 01:05:00;;;;;;;10.23;4.53;;;13.00;99.90;;;;;;5074544;28;20044;-62
2022/06/15 01:07:45;;;;;;;8.65;4.50;;;13.00;99.90;;;;;;5072049;28;20094;-62
2022/06/15 01:10:17;;;;;;;7.90;3.88;;;13.00;99.90;;;;;;5041258;28;20052;-62
2022/06/15 01:13:09;;;;;;;4.50;3.78;;;13.10;99.90;;;;;;5056180;28;20053;-63
2022/06/15 01:15:46;;;;;;;10.18;4.60;;;13.10;99.90;;;;;;5055064;28;20098;-63
2022/06/15 01:18:30;;;;;;;6.30;4.10;;;13.20;99.90;;;;;;5052626;28;20519;-63
2022/06/15 01:21:22;;;;;;;8.02;3.75;;;13.20;99.90;;;;;;5052378;28;20052;-63
2022/06/15 01:24:09;;;;;;;5.10;3.90;;;13.20;99.90;;;;;;5081229;22;20052;-65
2022/06/15 01:26:52;;;;;;;5.47;3.40;;;13.20;99.90;;;;;;5081108;28;20062;-66
2022/06/15 01:29:55;;;;;;;10.07;3.95;;;13.20;99.90;;;;;;5083598;28;20105;-66
2022/06/15 01:32:41;;;;;;;9.75;3.85;;;13.20;99.90;;;;;;5079753;28;20413;-66
2022/06/15 01:35:55;;;;;;;10.20;3.83;;;13.20;99.90;;;;;;5049215;28;20520;-66
2022/06/15 01:38:38;;;;;;;10.05;4.20;;;13.10;99.90;;;;;;5031638;28;20522;-66
2022/06/15 01:41:23;;;;;;;5.97;4.00;;;13.10;99.90;;;;;;5070209;28;20049;-66
2022/06/15 01:44:14;;;;;;;7.63;4.78;;;13.00;99.90;;;;;;5062777;28;20040;-66
2022/06/15 01:46:47;;;;;;;7.55;4.18;;;13.00;99.90;;;;;;5052334;28;20083;-66
2022/06/15 01:49:28;;;;;;;9.10;4.22;;;13.00;99.90;;;;;;5055112;28;20095;-66
2022/06/15 01:51:58;;;;;;;6.18;4.05;;;13.00;99.90;;;;;;5051923;28;20049;-66
2022/06/15 01:54:31;;;;;;;8.82;4.28;;;13.00;99.90;;;;;;5052281;28;20053;-66
2022/06/15 01:57:01;;;;;;;6.40;3.80;;;13.00;99.90;;;;;;5052229;28;20044;-66
2022/06/15 01:59:45;;;;;;;8.80;4.00;;;12.90;99.90;;;;;;5054873;28;20037;-66
2022/06/15 02:02:20;;;;;;;10.18;4.25;;;12.80;99.90;;;;;;5066768;28;20048;-66
2022/06/15 02:05:31;;;;;;;6.32;4.03;;;12.80;99.90;;;;;;5073447;28;20044;-66
2022/06/15 02:08:06;;;;;;;6.90;4.30;;;12.80;99.90;;;;;;5071830;28;20063;-66
2022/06/15 02:10:49;;;;;;;6.55;4.10;;;12.80;99.90;;;;;;5051480;28;20044;-66
2022/06/15 02:13:29;;;;;;;6.53;4.20;;;12.70;99.90;;;;;;5051907;28;20437;-66
2022/06/15 02:16:05;;;;;;;6.00;4.25;;;12.70;99.90;;;;;;5054693;28;20045;-66
2022/06/15 02:18:34;;;;;;;7.25;4.40;;;12.70;99.90;;;;;;5064558;28;20428;-66
2022/06/15 02:21:12;;;;;;;6.20;4.03;;;12.60;99.90;;;;;;5051583;28;20080;-66
2022/06/15 02:23:41;;;;;;;6.43;4.45;;;12.60;99.90;;;;;;5051823;28;20542;-66
2022/06/15 02:26:09;;;;;;;7.97;5.15;;;12.60;99.90;;;;;;5051701;28;20047;-66
2022/06/15 02:28:46;;;;;;;10.55;4.60;;;12.60;99.90;;;;;;5052005;28;20408;-66
2022/06/15 02:31:13;;;;;;;9.85;4.85;;;12.60;99.90;;;;;;5054071;28;20457;-66
2022/06/15 02:33:48;;;;;;;8.20;4.35;;;12.60;99.90;;;;;;5051218;28;20045;-66
2022/06/15 02:36:15;;;;;;;5.63;4.57;;;12.60;99.90;;;;;;5068279;28;20056;-66
2022/06/15 02:38:44;;;;;;;11.68;4.93;;;12.50;99.90;;;;;;5053722;28;20040;-66
2022/06/15 02:41:12;;;;;;;8.90;4.85;;;12.70;99.90;;;;;;5062481;28;20439;-66
2022/06/15 02:43:41;;;;;;;10.18;5.20;;;12.50;99.90;;;;;;5053738;28;20055;-66
2022/06/15 02:46:12;;;;;;;6.85;4.53;;;12.40;99.90;;;;;;5054551;28;20083;-66
2022/06/15 02:48:40;;;;;;;10.38;5.55;;;12.30;99.90;;;;;;5053875;28;20049;-66
2022/06/15 02:51:09;;;;;;;6.45;4.78;;;12.30;99.90;;;;;;5050804;28;20051;-66
2022/06/15 02:53:41;;;;;;;7.60;4.50;;;12.30;99.90;;;;;;5051074;28;20140;-66
2022/06/15 02:56:12;;;;;;;8.45;5.22;;;12.40;99.90;;;;;;5050837;28;20076;-66
2022/06/15 02:58:42;;;;;;;9.10;4.95;;;12.40;99.90;;;;;;5052587;28;20090;-66
2022/06/15 03:01:10;;;;;;;12.55;4.72;;;12.40;99.90;;;;;;5050681;28;20056;-66
2022/06/15 03:03:40;;;;;;;5.85;3.97;;;12.40;99.90;;;;;;5050875;28;20064;-66
2022/06/15 03:06:18;;;;;;;;;;;12.40;99.90;;;;;;5053511;28;20497;-66
2022/06/15 03:08:47;;;;;;;10.60;5.13;;;12.40;99.90;;;;;;5053977;28;19928;-66
2022/06/15 03:11:40;;;;;;;9.32;5.20;;;12.50;99.90;;;;;;5053745;28;20052;-66
2022/06/15 03:14:14;;;;;;;9.55;4.93;;;12.50;99.90;;;;;;5053478;28;20068;-66
2022/06/15 03:16:43;;;;;;;10.77;4.90;;;12.40;99.90;;;;;;5053626;28;20075;-66
2022/06/15 03:19:11;;;;;;;9.23;5.03;;;12.40;99.90;;;;;;5053887;28;20497;-66
2022/06/15 03:21:39;;;;;;;9.07;5.25;;;12.40;99.90;;;;;;5051994;28;20488;-66
2022/06/15 03:24:07;;;;;;;10.85;5.38;;;12.30;99.90;;;;;;5066476;28;20044;-66
2022/06/15 03:26:34;;;;;;;9.93;5.10;;;12.30;99.90;;;;;;5050561;28;20068;-66
2022/06/15 03:29:01;;;;;;;;;;;12.30;99.90;;;;;;5052206;28;20049;-66
2022/06/15 03:31:30;;;;;;;10.02;5.38;;;12.30;99.90;;;;;;5052722;28;20018;-66
2022/06/15 03:33:59;;;;;;;7.07;4.90;;;12.30;99.90;;;;;;5017541;28;20048;-66
2022/06/15 03:36:26;;;;;;;8.07;5.30;;;12.30;99.90;;;;;;5033943;28;20144;-66
2022/06/15 03:38:54;;;;;;;9.63;5.00;;;12.30;99.90;;;;;;5036857;28;20060;-66
2022/06/15 03:41:26;;;;;;;9.55;4.90;;;12.20;99.90;;;;;;5049858;28;20171;-66
2022/06/15 03:43:55;;;;;;;8.27;5.07;;;12.20;99.90;;;;;;5049996;28;20098;-66
2022/06/15 03:46:25;;;;;;;8.55;4.50;;;12.20;99.90;;;;;;5050305;28;20049;-66
2022/06/15 03:48:58;;;;;;;9.05;5.03;;;12.10;99.90;;;;;;5052796;28;20106;-66
2022/06/15 03:51:25;;;;;;;8.88;4.70;;;12.20;99.90;;;;;;5055590;28;20037;-66
2022/06/15 03:54:00;;;;;;;8.40;5.25;;;12.20;99.90;;;;;;5049317;28;20586;-66
2022/06/15 03:56:48;;;;;;;6.32;4.70;;;12.20;99.90;;;;;;5049296;28;20041;-66
2022/06/15 03:59:23;;;;;;;11.68;5.25;;;12.20;99.90;;;;;;5065298;28;20090;-66
2022/06/15 04:01:54;;;;;;;6.05;4.53;;;12.30;99.90;;;;;;5053061;28;20040;-66
2022/06/15 04:04:21;;;;;;;8.10;5.18;;;12.30;99.90;;;;;;5065486;28;20036;-66
2022/06/15 04:06:49;;;;;;;7.80;4.88;;;12.30;99.90;;;;;;5052919;28;20048;-66
2022/06/15 04:09:21;;;;;;;7.20;4.63;;;12.40;99.90;;;;;;5053373;28;20513;-66
2022/06/15 04:11:59;;;;;;;8.57;5.07;;;12.40;99.90;;;;;;5052268;28;20647;-66
2022/06/15 04:14:35;;;;;;;5.63;4.40;;;12.40;99.90;;;;;;5049917;28;20443;-66
2022/06/15 04:17:10;;;;;;;6.68;4.72;;;12.40;99.90;;;;;;5052819;28;20052;-66
2022/06/15 04:22:39;;;;;;;8.35;5.38;;;12.50;99.90;;;;;;5052385;28;20072;-66
2022/06/15 04:25:09;;;;;;;10.25;5.60;;;12.50;99.90;;;;;;5052695;28;20107;-66
2022/06/15 04:27:37;;;;;;;10.70;5.70;;;12.60;99.90;;;;;;5053154;28;20048;-66
2022/06/15 04:30:06;;;;;;;9.68;6.95;;;12.70;99.90;;;;;;5050149;28;20135;-66
2022/06/15 04:32:32;;;;;;;10.07;6.63;;;12.80;99.90;;;;;;5066394;28;20032;-66
2022/06/15 04:35:04;;;;;;;11.68;6.63;;;12.90;99.90;;;;;;5052865;28;20610;-67
2022/06/15 04:37:34;;;;;;;10.25;5.63;;;12.90;99.90;;;;;;5052904;28;20040;-66
2022/06/15 04:40:10;;;;;;;11.38;6.57;;;13.00;99.90;;;;;;5048667;28;20045;-66
2022/06/15 04:42:37;;;;;;;10.63;6.55;;;13.10;99.90;;;;;;5067002;28;20505;-66
2022/06/15 04:45:04;;;;;;;9.65;6.63;;;13.20;99.90;;;;;;5052644;28;20438;-66
2022/06/15 04:47:34;;;;;;;8.55;6.15;;;13.40;99.90;;;;;;5050556;28;20497;-66
2022/06/15 04:50:03;;;;;;;8.93;5.75;;;13.40;99.90;;;;;;5051303;28;20047;-66
2022/06/15 04:52:34;;;;;;;7.57;5.88;;;13.40;99.90;;;;;;5050106;28;20106;-66
2022/06/15 04:55:03;;;;;;;7.18;5.13;;;13.50;99.90;;;;;;5052811;28;20048;-66
2022/06/15 04:57:30;;;;;;;10.75;5.93;;;13.50;99.90;;;;;;5041315;28;20075;-66
2022/06/15 04:59:56;;;;;;;11.35;5.70;;;13.60;99.90;;;;;;5048977;28;20052;-65
2022/06/15 05:02:23;;;;;;;10.00;6.45;;;13.60;99.90;;;;;;5051907;28;20536;-66
2022/06/15 05:04:50;;;;;;;8.05;5.65;;;13.70;99.90;;;;;;5052876;28;20041;-66
2022/06/15 05:07:17;;;;;;;9.60;5.75;;;13.70;99.90;;;;;;5064968;28;20037;-66
2022/06/15 05:09:47;;;;;;;7.85;5.10;;;13.80;99.90;;;;;;5055701;28;20048;-65
2022/06/15 05:12:14;;;;;;;7.22;5.38;;;13.90;99.90;;;;;;5055168;28;20136;-66
2022/06/15 05:14:46;;;;;;;12.70;6.35;;;13.90;99.90;;;;;;5055976;28;20048;-65
2022/06/15 05:17:18;;;;;;;9.00;5.93;;;13.90;99.90;;;;;;5052095;28;20041;-66
2022/06/15 05:19:47;;;;;;;10.73;6.78;;;14.00;99.90;;;;;;5055550;28;20501;-66
2022/06/15 05:22:14;;;;;;;14.02;6.88;;;14.10;99.90;;;;;;5055305;28;20128;-66
2022/06/15 05:24:41;;;;;;;10.20;5.68;;;14.10;99.90;;;;;;5054826;28;20123;-66
2022/06/15 05:27:09;;;;;;;11.23;6.40;;;14.20;99.90;;;;;;5052881;28;20040;-66
2022/06/15 05:29:39;;;;;;;10.77;6.10;;;14.20;99.90;;;;;;5055803;28;20052;-64
2022/06/15 05:32:13;;;;;;;7.70;5.57;;;14.50;99.90;;;;;;5055594;28;20075;-66
2022/06/15 05:34:40;;;;;;;9.57;5.47;;;14.90;99.90;;;;;;5064709;28;20046;-66
2022/06/15 05:37:07;;;;;;;9.07;5.60;;;14.90;99.90;;;;;;5055761;28;20044;-66
2022/06/15 05:39:37;;;;;;;9.65;5.35;;;15.00;99.90;;;;;;5055388;28;20040;-66
2022/06/15 05:42:04;;;;;;;8.15;5.53;;;15.00;99.90;;;;;;5053531;28;20045;-68
2022/06/15 05:47:12;;;;;;;10.60;5.20;;;15.20;99.90;;;;;;5055254;28;20056;-68
2022/06/15 05:49:47;;;;;;;9.80;5.38;;;15.30;99.90;;;;;;5050854;28;20576;-68
2022/06/15 05:52:18;;;;;;;8.68;5.20;;;15.40;99.90;;;;;;5053417;28;20518;-68
2022/06/15 05:54:46;;;;;;;9.05;5.10;;;15.50;99.90;;;;;;5051985;28;20128;-68
2022/06/15 05:57:21;;;;;;;7.85;5.65;;;15.60;99.90;;;;;;5053395;28;20445;-68
2022/06/15 05:59:49;;;;;;;10.15;4.85;;;15.70;99.90;;;;;;5067483;28;20052;-68
2022/06/15 06:02:17;;;;;;;;;;;15.80;99.90;;;;;;5067426;28;20037;-68
2022/06/15 06:04:44;;;;;;;8.57;5.40;;;15.80;99.90;;;;;;5053288;28;19921;-68
2022/06/15 06:07:17;;;;;;;10.25;4.90;;;15.90;99.90;;;;;;5065678;28;20032;-72
2022/06/15 06:09:44;;;;;;;9.55;4.43;;;15.90;99.90;;;;;;5063576;28;20044;-72
2022/06/15 06:12:11;;;;;;;15.57;5.55;;;16.10;99.90;;;;;;5040793;28;20057;-64
2022/06/15 06:14:38;;;;;;;12.55;5.03;;;16.10;99.90;;;;;;5053193;28;20048;-67
2022/06/15 06:17:08;;;;;;;6.70;4.72;;;16.20;99.90;;;;;;5052465;28;20571;-67
2022/06/15 06:19:35;;;;;;;10.82;5.22;;;16.30;99.90;;;;;;5069759;28;20068;-67
2022/06/15 06:22:02;;;;;;;8.77;4.40;;;16.50;99.90;;;;;;5059919;28;20485;-67
2022/06/15 06:24:29;;;;;;;6.45;4.90;;;16.60;99.90;;;;;;5052733;28;20312;-67
2022/06/15 06:27:00;;;;;;;10.25;5.03;;;16.70;99.90;;;;;;5056110;28;20042;-67
2022/06/15 06:29:28;;;;;;;8.90;5.10;;;16.70;99.90;;;;;;5051652;28;20037;-67
2022/06/15 06:31:57;;;;;;;6.72;4.80;;;16.80;99.90;;;;;;5052593;28;20045;-67
2022/06/15 06:34:25;;;;;;;8.10;5.20;;;16.90;99.90;;;;;;5050931;28;20044;-67
2022/06/15 06:36:52;;;;;;;9.93;5.00;;;17.00;99.90;;;;;;5068846;28;20052;-67
2022/06/15 06:39:24;;;;;;;6.93;4.80;;;17.10;99.90;;;;;;5066708;28;20404;-67
2022/06/15 06:41:52;;;;;;;8.07;5.03;;;17.40;99.90;;;;;;5061368;28;20033;-67
2022/06/15 06:44:19;;;;;;;8.60;4.95;;;17.60;99.90;;;;;;5052663;28;20044;-68
2022/06/15 06:46:47;;;;;;;9.48;4.68;;;17.80;99.90;;;;;;5052560;28;20048;-67
2022/06/15 06:49:16;;;;;;;6.63;4.35;;;17.90;99.90;;;;;;5066112;28;20040;-67
2022/06/15 06:51:45;;;;;;;4.95;4.30;;;18.00;99.90;;;;;;5053955;28;20102;-67
2022/06/15 06:54:14;;;;;;;9.18;5.03;;;18.00;99.90;;;;;;5052299;28;20103;-67
2022/06/15 06:56:41;;;;;;;9.07;4.57;;;18.20;99.90;;;;;;5060664;28;20047;-67
2022/06/15 06:59:10;;;;;;;10.43;4.80;;;18.30;99.90;;;;;;5058065;28;20029;-68
2022/06/15 07:01:40;;;;;;;13.77;5.05;;;18.40;99.90;;;;;;5051046;28;20490;-67
2022/06/15 07:04:08;;;;;;;8.60;4.55;;;18.30;99.90;;;;;;5056618;28;20047;-67
2022/06/15 07:06:36;;;;;;;7.80;4.80;;;18.40;99.90;;;;;;5062669;28;20033;-67
2022/06/15 07:09:03;;;;;;;9.02;4.53;;;18.60;99.90;;;;;;5052058;28;20049;-67
2022/06/15 07:11:30;;;;;;;;;;;18.90;99.90;;;;;;5052329;28;20052;-67
2022/06/15 07:13:57;;;;;;;10.63;4.18;;;19.20;99.90;;;;;;5063252;28;19927;-67
2022/06/15 07:16:23;;;;;;;7.05;4.20;;;19.60;99.90;;;;;;5056421;28;20441;-67
2022/06/15 07:18:50;;;;;;;6.45;3.92;;;19.80;99.90;;;;;;5051921;28;20051;-67
2022/06/15 07:21:20;;;;;;;7.88;4.50;;;20.00;99.90;;;;;;5050992;28;20045;-67
2022/06/15 07:23:49;;;;;;;7.60;4.65;;;20.00;99.90;;;;;;5084224;22;20044;-63
2022/06/15 07:26:27;;;;;;;6.78;5.15;;;20.00;99.90;;;;;;5044016;28;20036;-62
2022/06/15 07:28:54;;;;;;;9.85;4.85;;;20.10;99.90;;;;;;5068123;28;20045;-62
2022/06/15 07:31:32;;;;;;;8.60;4.68;;;20.00;99.90;;;;;;5068503;28;20094;-63
2022/06/15 07:33:59;;;;;;;7.43;4.68;;;19.70;99.90;;;;;;5065076;28;20044;-63
2022/06/15 07:36:34;;;;;;;9.27;4.38;;;19.30;99.90;;;;;;5071509;28;20044;-62
2022/06/15 07:39:01;;;;;;;7.72;4.72;;;19.00;99.90;;;;;;5082233;28;20082;-63
2022/06/15 07:41:28;;;;;;;8.73;4.50;;;18.90;99.90;;;;;;5087054;28;20036;-63
2022/06/15 07:43:56;;;;;;;13.40;5.45;;;18.80;99.90;;;;;;5091610;28;20173;-63
2022/06/15 07:46:23;;;;;;;11.30;4.35;;;19.00;99.90;;;;;;5091020;28;20040;-63
2022/06/15 07:51:46;;;;;;;8.73;4.78;;;19.70;99.90;;;;;;5091165;28;20051;-63
2022/06/15 07:54:15;;;;;;;10.40;5.13;;;20.00;99.90;;;;;;5091563;28;20051;-63
2022/06/15 07:56:43;;;;;;;11.18;4.85;;;20.30;99.90;;;;;;5083007;28;20036;-64
2022/06/15 07:59:11;;;;;;;10.27;5.45;;;20.50;99.90;;;;;;5084679;28;20048;-63
2022/06/15 08:01:39;;;;;;;7.60;4.60;;;20.60;99.90;;;;;;5090894;28;20050;-63
2022/06/15 08:04:06;;;;;;;;;;;20.60;99.90;;;;;;5091768;28;20054;-64
2022/06/15 08:06:35;;;;;;;5.83;4.50;;;20.80;99.90;;;;;;5090777;28;20392;-63
2022/06/15 08:09:02;;;;;;;6.47;5.22;;;20.90;99.90;;;;;;5083558;28;20044;-64
2022/06/15 08:11:28;;;;;;;7.13;5.10;;;21.00;99.90;;;;;;5090723;28;20052;-64
2022/06/15 08:13:55;;;;;;;7.57;5.22;;;21.00;99.90;;;;;;5087561;28;20094;-64
2022/06/15 08:16:22;;;;;;;8.02;4.45;;;21.10;99.90;;;;;;5086422;28;20580;-64
2022/06/15 08:18:54;;;;;;;7.07;4.78;;;21.20;99.90;;;;;;5091138;28;20040;-64
2022/06/15 08:21:28;;;;;;;12.90;5.15;;;21.40;99.90;;;;;;5090420;28;20373;-64
2022/06/15 08:23:57;;;;;;;7.50;5.13;;;21.60;99.90;;;;;;5082523;28;20040;-64
2022/06/15 08:26:30;;;;;;;9.55;5.00;;;21.70;99.90;;;;;;5091150;28;20048;-64
2022/06/15 08:29:00;;;;;;;8.10;4.78;;;21.80;99.90;;;;;;5091838;28;20063;-64
2022/06/15 08:31:27;;;;;;;7.53;4.30;;;21.90;99.90;;;;;;5082588;28;20060;-63
2022/06/15 08:33:54;;;;;;;9.20;4.40;;;22.00;99.90;;;;;;5090650;28;20414;-64
2022/06/15 08:36:21;;;;;;;7.03;4.43;;;22.10;99.90;;;;;;5090949;28;20048;-64
2022/06/15 08:38:48;;;;;;;;;;;22.10;99.90;;;;;;5091093;28;20070;-64
2022/06/15 08:41:45;;;;;;;6.75;4.55;;;22.10;99.90;;;;;;5086320;28;19927;-63
2022/06/15 08:44:31;;;;;;;6.82;4.60;;;22.00;99.90;;;;;;5056915;28;20444;-64
2022/06/15 08:47:40;;;;;;;7.28;3.85;;;22.20;99.90;;;;;;5074489;28;20055;-63
2022/06/15 08:50:17;;;;;;;4.40;4.00;;;22.30;99.90;;;;;;5084254;28;20032;-64
2022/06/15 08:52:45;;;;;;;;;;;22.60;99.90;;;;;;5093796;28;20044;-64
2022/06/15 08:55:20;;;;;;;7.97;4.60;;;22.70;99.90;;;;;;5094970;28;19923;-64
2022/06/15 08:57:51;;;;;;;7.05;3.85;;;22.90;99.90;;;;;;5094088;28;20456;-63
2022/06/15 09:00:24;;;;;;;7.57;4.30;;;23.00;99.90;;;;;;5085869;28;20036;-64
2022/06/15 09:03:01;;;;;;;4.57;3.55;;;23.10;99.90;;;;;;5094427;28;20043;-64
2022/06/15 09:05:47;;;;;;;10.80;4.60;;;23.10;99.90;;;;;;5094841;28;20051;-64
2022/06/15 09:08:41;;;;;;;5.25;3.92;;;23.10;99.90;;;;;;5088299;28;20326;-64
2022/06/15 09:11:26;;;;;;;6.97;3.67;;;23.20;99.90;;;;;;5073683;28;20040;-64
2022/06/15 09:14:11;;;;;;;3.97;3.42;;;23.30;99.90;;;;;;5056430;28;20040;-64
2022/06/15 09:17:10;;;;;;;4.85;3.40;;;23.40;99.90;;;;;;5083124;28;20519;-64
2022/06/15 09:19:40;;;;;;;;;;;23.40;99.90;;;;;;5094898;28;20050;-64
2022/06/15 09:22:11;;;;;;;8.98;4.28;;;23.40;99.90;;;;;;5093723;28;19938;-63
2022/06/15 09:24:50;;;;;;;8.00;4.20;;;23.40;99.90;;;;;;5086388;28;20078;-63
2022/06/15 09:27:28;;;;;;;4.53;3.60;;;23.00;99.90;;;;;;5085767;28;20036;-64
2022/06/15 09:30:00;;;;;;;5.82;3.88;;;23.30;99.90;;;;;;5094424;28;20048;-64
2022/06/15 09:32:35;;;;;;;7.40;4.30;;;23.50;99.90;;;;;;5093341;28;20044;-64
2022/06/15 09:35:16;;;;;;;6.90;4.13;;;23.70;99.90;;;;;;5086306;28;20066;-64
2022/06/15 09:37:48;;;;;;;5.80;3.97;;;23.90;99.90;;;;;;5094202;28;20052;-64
2022/06/15 09:40:15;;;;;;;5.95;4.30;;;23.90;99.90;;;;;;5093178;28;20043;-64
2022/06/15 09:43:01;;;;;;;6.55;4.35;;;23.90;99.90;;;;;;5092012;28;20051;-64
2022/06/15 09:45:56;;;;;;;6.07;3.92;;;24.20;99.90;;;;;;5089769;28;20032;-64
2022/06/15 09:48:33;;;;;;;8.10;4.30;;;24.30;99.90;;;;;;5086782;28;20059;-64
2022/06/15 09:51:14;;;;;;;10.02;4.72;;;24.30;99.90;;;;;;5092937;28;20040;-64
2022/06/15 09:53:59;;;;;;;6.13;4.07;;;24.50;99.90;;;;;;5083756;28;20649;-64
2022/06/15 09:56:25;;;;;;;5.60;4.28;;;24.50;99.90;;;;;;5093713;28;20044;-64
2022/06/15 09:59:02;;;;;;;4.35;3.90;;;24.80;99.90;;;;;;5093737;28;20458;-64
2022/06/15 10:01:33;;;;;;;5.97;3.90;;;24.90;99.90;;;;;;5085110;28;20029;-64
2022/06/15 10:04:03;;;;;;;5.32;3.90;;;25.00;99.90;;;;;;5073277;28;20037;-64
2022/06/15 10:06:36;;;;;;;6.38;3.65;;;25.40;99.90;;;;;;5073072;28;20464;-64
2022/06/15 10:09:07;;;;;;;6.47;3.63;;;25.90;99.90;;;;;;5077733;28;20557;-64
2022/06/15 10:11:42;;;;;;;5.32;3.40;;;26.00;99.90;;;;;;5084726;28;20304;-64
2022/06/15 10:14:16;;;;;;;6.95;4.20;;;26.20;99.90;;;;;;5093352;28;20093;-64
2022/06/15 10:16:58;;;;;;;5.00;3.70;;;26.30;98.50;;;;;;5093504;28;20392;-64
2022/06/15 10:19:29;;;;;;;4.55;3.60;;;26.30;99.90;;;;;;5085102;28;20036;-64
2022/06/15 10:22:03;;;;;;;11.05;3.92;;;26.50;99.90;;;;;;5092740;28;20554;-65
2022/06/15 10:24:34;;;;;;;6.60;3.53;;;26.70;99.90;;;;;;5093104;28;20032;-64
2022/06/15 10:27:16;;;;;;;7.45;3.80;;;26.60;99.90;;;;;;5092445;28;20032;-65
2022/06/15 10:29:54;;;;;;;14.27;4.00;;;26.70;99.90;;;;;;5084373;28;20056;-65
2022/06/15 10:32:21;;;;;;;7.65;4.22;;;26.60;99.90;;;;;;5092867;28;20051;-64
2022/06/15 10:35:02;;;;;;;5.70;4.10;;;26.70;99.90;;;;;;5092192;28;20069;-64
2022/06/15 10:37:40;;;;;;;6.18;4.03;;;26.50;99.80;;;;;;5066626;28;20043;-64
2022/06/15 10:40:36;;;;;;;4.90;4.00;;;26.40;99.90;;;;;;5092442;28;20400;-64
2022/06/15 10:43:23;;;;;;;6.40;4.53;;;26.30;99.90;;;;;;5092680;28;20094;-64
2022/06/15 10:45:52;;;;;;;4.60;3.97;;;26.60;99.90;;;;;;5089836;28;20062;-65
2022/06/15 10:48:45;;;;;;;5.10;4.22;;;26.60;99.70;;;;;;5087212;28;20044;-64
2022/06/15 10:51:47;;;;;;;7.80;4.50;;;26.50;99.90;;;;;;5092217;28;20040;-65
2022/06/15 10:54:17;;;;;;;7.30;3.90;;;26.40;99.90;;;;;;5078721;28;20055;-64
2022/06/15 11:02:28;;;;;;;8.07;4.40;;;27.00;99.90;;;;;;5092458;28;20048;-64
2022/06/15 11:05:04;;;;;;;5.18;4.68;;;27.10;99.90;;;;;;5087858;28;20037;-65
2022/06/15 11:07:59;;;;;;;5.90;4.20;;;27.30;99.90;;;;;;5088501;28;20059;-65
2022/06/15 11:10:38;;;;;;;8.10;4.47;;;27.40;99.30;;;;;;5092092;28;20047;-65
2022/06/15 11:13:26;;;;;;;8.20;4.15;;;27.40;99.90;;;;;;5081515;28;20033;-65
2022/06/15 11:18:44;;;;;;;6.10;4.60;;;27.30;99.90;;;;;;5091550;28;20071;-64
2022/06/15 11:21:18;;;;;;;6.70;4.75;;;27.10;99.90;;;;;;5065046;28;20446;-65
2022/06/15 11:23:54;;;;;;;7.57;4.32;;;27.00;99.90;;;;;;5091855;28;20043;-65
2022/06/15 11:29:41;;;;;;;8.23;3.92;;;26.80;99.90;;;;;;5091303;28;20048;-64
2022/06/15 11:32:35;;;;;;;7.85;4.30;;;26.60;99.50;;;;;;5084618;28;20036;-65
2022/06/15 11:35:11;;;;;;;12.18;4.35;;;26.50;99.90;;;;;;5091240;28;20036;-65
2022/06/15 11:38:11;;;;;;;8.50;4.20;;;26.60;99.90;;;;;;5083044;28;20341;-65
2022/06/15 11:40:50;;;;;;;7.85;3.88;;;26.70;99.90;;;;;;5091499;28;20112;-65
2022/06/15 11:43:42;;;;;;;8.82;2.88;;;26.80;99.90;;;;;;5091325;28;20048;-64
2022/06/15 11:46:20;;;;;;;5.25;3.08;;;26.90;99.90;;;;;;5079437;28;20050;-64
2022/06/15 11:49:18;;;;;;;4.78;3.03;;;27.00;99.90;;;;;;5071958;28;20093;-65
2022/06/15 11:52:02;;;;;;;5.90;3.10;;;27.00;98.70;;;;;;5085780;28;20061;-64
2022/06/15 11:54:58;;;;;;;4.63;3.10;;;27.00;98.60;;;;;;5083155;28;20028;-64
2022/06/15 11:57:43;;;;;;;7.47;3.60;;;27.10;99.90;;;;;;5090864;28;20032;-64
2022/06/15 12:00:54;;;;;;;7.60;3.05;;;27.30;99.70;;;;;;5085481;28;20040;-65
2022/06/15 12:03:47;;;;;;;5.93;3.40;;;27.20;99.40;;;;;;5001129;28;20042;-64
2022/06/15 12:06:22;;;;;;;7.95;3.33;;;27.20;98.40;;;;;;5088139;28;20459;-64
2022/06/15 12:08:51;;;;;;;12.02;4.38;;;27.20;98.90;;;;;;5087081;28;20036;-65
2022/06/15 12:14:52;;;;;;;8.05;3.35;;;27.30;99.80;;;;;;5028585;28;20046;-65
2022/06/15 12:17:34;;;;;;;4.15;3.20;;;27.30;99.70;;;;;;5031350;28;20064;-64
2022/06/15 12:20:15;;;;;;;6.90;3.22;;;27.30;99.00;;;;;;5074489;28;20504;-65
2022/06/15 12:22:57;;;;;;;8.57;3.75;;;27.40;99.40;;;;;;5084809;28;20448;-65
2022/06/15 12:25:41;;;;;;;6.30;3.20;;;27.30;99.90;;;;;;5089644;28;20131;-65
2022/06/15 12:28:35;;;;;;;5.47;3.63;;;27.40;99.60;;;;;;5087838;28;20044;-65
2022/06/15 12:31:31;;;;;;;6.22;3.50;;;27.50;99.70;;;;;;5085235;28;20048;-65
2022/06/15 12:34:11;;;;;;;3.85;3.33;;;27.70;99.30;;;;;;5082152;28;20055;-64
2022/06/15 12:36:41;;;;;;;3.90;3.33;;;27.70;98.30;;;;;;5086402;28;20054;-65
2022/06/15 12:39:24;;;;;;;5.68;3.75;;;27.60;98.40;;;;;;5065334;28;20063;-65
2022/06/15 12:42:10;;;;;;;4.65;3.42;;;27.60;98.20;;;;;;5085161;28;20412;-66
2022/06/15 12:44:48;;;;;;;4.50;3.67;;;27.60;98.30;;;;;;5087069;28;20128;-65
2022/06/15 12:47:17;;;;;;;;;;;27.60;99.40;;;;;;5086141;28;20090;-65
2022/06/15 12:50:10;;;;;;;6.32;3.63;;;27.70;98.00;;;;;;5080051;28;20389;-64
2022/06/15 12:52:46;;;;;;;5.97;3.38;;;27.90;99.20;;;;;;5084755;28;20047;-64
2022/06/15 12:55:42;;;;;;;8.02;3.70;;;28.00;98.40;;;;;;5086583;28;20036;-64
2022/06/15 12:58:39;;;;;;;6.28;3.40;;;28.00;99.00;;;;;;5085296;28;20044;-64
2022/06/15 13:01:24;;;;;;;4.47;3.63;;;28.20;99.30;;;;;;5065145;28;20074;-64
2022/06/15 13:04:25;;;;;;;4.13;3.20;;;28.20;98.00;;;;;;5083071;28;20040;-64
2022/06/15 13:07:20;;;;;;;6.95;3.72;;;28.20;99.20;;;;;;5085137;28;20040;-64
2022/06/15 13:10:09;;;;;;;6.63;3.38;;;28.20;98.20;;;;;;5081337;28;20041;-64
2022/06/15 13:12:47;;;;;;;5.60;3.80;;;28.40;97.90;;;;;;5084883;28;20036;-64
2022/06/15 13:15:22;;;;;;;5.00;3.90;;;28.30;97.50;;;;;;5085141;28;20031;-64
2022/06/15 13:18:09;;;;;;;4.65;3.45;;;28.30;97.40;;;;;;5077192;28;20059;-64
2022/06/15 13:20:48;;;;;;;7.68;3.58;;;28.50;97.40;;;;;;5076890;28;20048;-65
2022/06/15 13:23:28;;;;;;;6.93;3.75;;;28.50;98.30;;;;;;5087891;22;20015;-66
2022/06/15 13:26:11;;;;;;;7.38;3.63;;;28.50;96.70;;;;;;5065131;28;20040;-65
2022/06/15 13:28:45;;;;;;;5.20;3.65;;;28.60;97.00;;;;;;5069851;28;20055;-64
2022/06/15 13:31:40;;;;;;;7.43;3.97;;;28.90;98.20;;;;;;5073257;28;20051;-66
2022/06/15 13:34:09;;;;;;;4.82;3.53;;;28.80;96.10;;;;;;5055900;28;20087;-66
2022/06/15 13:36:37;;;;;;;7.28;3.83;;;28.80;96.70;;;;;;5068814;28;20554;-66
2022/06/15 13:39:42;;;;;;;6.97;3.55;;;28.90;97.50;;;;;;5055727;28;20082;-66
2022/06/15 13:42:40;;;;;;;7.38;3.80;;;28.80;97.40;;;;;;5058896;28;20760;-66
2022/06/15 13:45:22;;;;;;;6.38;3.10;;;28.80;96.30;;;;;;5066293;28;20037;-66
2022/06/15 13:48:17;;;;;;;7.20;3.60;;;28.80;96.00;;;;;;5072839;28;20055;-66
2022/06/15 13:50:55;;;;;;;6.82;4.30;;;28.80;96.50;;;;;;5065720;28;20037;-66